Brinckley, Indiana
Current Conditions -  °F | °C
As of 7:53 AM on Wednesday 26 Nov 2014 (Local Time) from KMIE Reporting Station
Overcast Overcast  
Wind Chill: 22°   Ceiling: 1300
Heat Index: 27°   Visibility: 10mi
Dew Point: 22°   Wind: 5mph
Humidity: 81%   Direction: 90°E
Pressure: 30.14"   Gusts: NA
Location:  40.2108°N, 85.1197°W
Report Text: KMIE 261253Z 09004KT 10SM OVC013 M03/M06 A3014 RMK AO2 SLP213 T10281056
Loading
Personal Weather Stations






























Interactive Weather Map New forecast layout! Learn more

10-Day Weather Forecast

Advertisements
Track Severe Weather on mobile